This is the latest recevied weather packets stored in our database for station/object K1WJY. If no packets are shown the sender has not sent any weather packets the latest 10 day(s).
| Time | Temp. | Humidity | Pressure | Rain* | Wind** | Luminosity | Snow |
|---|---|---|---|---|---|---|---|
| 1787843246 | 23.33° C | 85% | 1021.5 hPa | 0 mm | - | 561 W/m² | - |
| 1787842941 | 22.78° C | 87% | 1021.7 hPa | 0 mm | - | 718 W/m² | - |
| 1787842641 | 22.78° C | 88% | 1021.6 hPa | 0 mm | - | 503 W/m² | - |
| 1787842336 | 22.78° C | 87% | 1021.5 hPa | 0 mm | - | 517 W/m² | - |
| 1787842036 | 22.22° C | 89% | 1021.5 hPa | 0 mm | - | 301 W/m² | - |
| 1787841733 | 22.22° C | 88% | 1021.6 hPa | 0 mm | - | 310 W/m² | - |
| 1787841433 | 22.22° C | 90% | 1021.6 hPa | 0 mm | - | 388 W/m² | - |
| 1787841127 | 22.22° C | 90% | 1021.6 hPa | 0 mm | - | 259 W/m² | - |
| 1787840822 | 21.67° C | 91% | 1021.7 hPa | 0 mm | - | 337 W/m² | - |
| 1787840517 | 21.11° C | 92% | 1021.7 hPa | 0 mm | - | 301 W/m² | - |
| 1787840212 | 21.11° C | 92% | 1021.4 hPa | 0 mm | - | 316 W/m² | - |
| 1787839911 | 21.11° C | 92% | 1021.7 hPa | 0 mm | - | 310 W/m² | - |
| 1787839607 | 21.11° C | 92% | 1021.6 hPa | 0 mm | - | 241 W/m² | - |
| 1787839307 | 21.11° C | 93% | 1021.7 hPa | 0 mm | - | 222 W/m² | - |
| 1787839007 | 21.11° C | 93% | 1021.6 hPa | 0 mm | - | 209 W/m² | - |
| 1787838706 | 21.11° C | 92% | 1021.7 hPa | 0 mm | - | 219 W/m² | - |
| 1787838405 | 22.22° C | 89% | 1021.7 hPa | 0 mm | - | 286 W/m² | - |
| 1787838104 | 22.22° C | 89% | 1021.6 hPa | 0 mm | - | 614 W/m² | - |
| 1787837804 | 22.22° C | 88% | 1021.7 hPa | 0 mm | - | 650 W/m² | - |
| 1787837500 | 21.67° C | 90% | 1021.7 hPa | 0 mm | - | 641 W/m² | - |
| 1787837199 | 20.56° C | 94% | 1021.7 hPa | 0 mm | - | 423 W/m² | - |
| 1787836898 | 20° C | 94% | 1021.7 hPa | 0 mm | - | 232 W/m² | - |
| 1787836594 | 20° C | 94% | 1021.6 hPa | 0 mm | - | 155 W/m² | - |
| 1787836293 | 20.56° C | 93% | 1021.7 hPa | 0 mm | - | 149 W/m² | - |
| 1787835989 | 20.56° C | 92% | 1021.4 hPa | 0 mm | - | 144 W/m² | - |
* Rain latest hour (hover to see other rain measurements)
** Current wind speed in m/s (hover to see current wind gust speed)